Time;durP1;ratioP1;P1;durP2;ratioP2;P2;SDS_P1;SDS_P2;PMS_P1;PMS_P2;Temp;Humidity;BMP_temperature;BMP_pressure;BME280_temperature;BME280_humidity;BME280_pressure;Samples;Min_cycle;Max_cycle;Signal;HPM_P1;HPM_P2
2023/10/06 00:02:09;;;;;;;;;;;;;;;15.46;100.00;98963.06;5111634;28;19986;-73
2023/10/06 00:04:38;;;;;;;;;;;;;;;15.46;100.00;98969.25;5116424;28;19924;-73
2023/10/06 00:07:07;;;;;;;;;;;;;;;15.45;100.00;98973.00;5118257;28;19992;-74
2023/10/06 00:09:34;;;;;;;;;;;;;;;15.43;100.00;98969.78;5118251;28;20732;-73
2023/10/06 00:12:03;;;;;;;;;;;;;;;15.40;100.00;98978.41;5115227;28;19930;-73
2023/10/06 00:14:39;;;;;;;;;;;;;;;15.36;100.00;98977.31;5096316;28;19924;-73
2023/10/06 00:17:15;;;;;;;;;;;;;;;15.36;100.00;98982.69;5115646;28;19955;-73
2023/10/06 00:19:42;;;;;;;;;;;;;;;15.30;100.00;98985.63;5118004;28;19928;-73
2023/10/06 00:22:17;;;;;;;;;;;;;;;15.16;100.00;98989.94;5124259;28;19924;-73
2023/10/06 00:24:46;;;;;;;;;;;;;;;15.17;100.00;98975.38;5113756;28;20007;-73
2023/10/06 00:27:13;;;;;;;;;;;;;;;15.19;100.00;98976.75;5116486;28;19995;-74
2023/10/06 00:29:43;;;;;;;;;;;;;;;15.21;100.00;98977.28;5117696;28;19924;-73
2023/10/06 00:32:25;;;;;;;;;;;;;;;15.19;100.00;98973.25;5118008;28;19940;-73
2023/10/06 00:34:54;;;;;;;;;;;;;;;14.94;100.00;98977.50;5117695;28;19991;-73
2023/10/06 00:37:22;;;;;;;;;;;;;;;14.93;100.00;98981.25;5115774;28;19928;-75
2023/10/06 00:39:50;;;;;;;;;;;;;;;15.03;100.00;98988.56;5114425;28;19924;-73
2023/10/06 00:42:19;;;;;;;;;;;;;;;15.11;100.00;98980.78;5114446;28;19924;-73
2023/10/06 00:44:46;;;;;;;;;;;;;;;15.12;100.00;98982.41;5126696;28;19934;-73
2023/10/06 00:47:15;;;;;;;;;;;;;;;15.14;100.00;98982.13;5116428;28;19923;-74
2023/10/06 00:49:43;;;;;;;;;;;;;;;15.11;100.00;98980.78;5120494;28;20689;-74
2023/10/06 00:52:12;;;;;;;;;;;;;;;15.12;100.00;98973.50;5116493;28;20033;-74
2023/10/06 00:54:39;;;;;;;;;;;;;;;15.11;100.00;98977.25;5115022;28;19920;-74
2023/10/06 00:57:09;;;;;;;;;;;;;;;15.04;100.00;98974.81;5118301;28;19924;-74
2023/10/06 00:59:37;;;;;;;;;;;;;;;14.95;100.00;98978.28;5118408;28;20007;-74
2023/10/06 01:02:08;;;;;;;;;;;;;;;14.97;100.00;98974.28;5116750;28;19966;-74
2023/10/06 01:04:42;;;;;;;;;;;;;;;14.98;100.00;98973.19;5114273;28;20495;-74
2023/10/06 01:07:09;;;;;;;;;;;;;;;15.02;100.00;98973.47;5129130;28;20030;-74
2023/10/06 01:09:35;;;;;;;;;;;;;;;15.02;100.00;98976.16;5120276;28;19939;-74
2023/10/06 01:12:06;;;;;;;;;;;;;;;15.02;100.00;98976.16;5116491;28;19928;-74
2023/10/06 01:14:34;;;;;;;;;;;;;;;15.01;100.00;98971.84;5115558;28;19971;-74
2023/10/06 01:17:14;;;;;;;;;;;;;;;15.02;100.00;98978.88;5116719;28;20396;-74
2023/10/06 01:19:48;;;;;;;;;;;;;;;15.01;100.00;98975.34;5117999;28;19924;-74
2023/10/06 01:22:22;;;;;;;;;;;;;;;15.00;100.00;98976.44;5124864;28;19959;-74
2023/10/06 01:24:49;;;;;;;;;;;;;;;14.99;100.00;98976.69;5112064;28;19973;-74
2023/10/06 01:27:15;;;;;;;;;;;;;;;14.96;100.00;98980.75;5115737;28;19936;-74
2023/10/06 01:29:42;;;;;;;;;;;;;;;14.94;100.00;98974.81;5121593;28;19931;-73
2023/10/06 01:32:09;;;;;;;;;;;;;;;14.83;100.00;98975.84;5121458;28;20018;-73
2023/10/06 01:34:38;;;;;;;;;;;;;;;14.87;100.00;98982.31;5121381;28;19945;-73
2023/10/06 01:37:05;;;;;;;;;;;;;;;14.90;100.00;98979.09;5119772;28;19935;-73
2023/10/06 01:39:35;;;;;;;;;;;;;;;14.90;100.00;98978.28;5116347;28;19924;-74
2023/10/06 01:42:04;;;;;;;;;;;;;;;14.87;100.00;98976.94;5126960;28;19950;-74
2023/10/06 01:44:31;;;;;;;;;;;;;;;14.86;100.00;98971.81;5121053;28;20000;-73
2023/10/06 01:46:58;;;;;;;;;;;;;;;14.85;100.00;98980.97;5113880;28;19928;-74
2023/10/06 01:49:25;;;;;;;;;;;;;;;14.84;100.00;98982.84;5098624;28;19920;-74
2023/10/06 01:51:51;;;;;;;;;;;;;;;14.83;100.00;98986.59;5114909;28;19930;-74
2023/10/06 01:54:19;;;;;;;;;;;;;;;14.70;100.00;98981.72;5119411;28;19946;-74
2023/10/06 01:56:47;;;;;;;;;;;;;;;14.61;100.00;98977.13;5123353;28;19928;-74
2023/10/06 01:59:14;;;;;;;;;;;;;;;14.66;100.00;98972.56;5100709;28;20392;-74
2023/10/06 02:01:41;;;;;;;;;;;;;;;14.66;100.00;98969.88;5120841;28;19979;-74
2023/10/06 02:04:10;;;;;;;;;;;;;;;14.70;100.00;98976.34;5121127;28;20024;-74
2023/10/06 02:06:37;;;;;;;;;;;;;;;14.71;100.00;98977.16;5120677;28;19967;-74
2023/10/06 02:09:05;;;;;;;;;;;;;;;14.71;100.00;98986.03;5117690;28;19923;-74
2023/10/06 02:11:31;;;;;;;;;;;;;;;14.70;100.00;98981.72;5117312;28;19982;-74
2023/10/06 02:13:59;;;;;;;;;;;;;;;14.69;100.00;98982.81;5119910;28;19950;-74
2023/10/06 02:16:27;;;;;;;;;;;;;;;14.68;100.00;98981.19;5121551;28;19928;-74
2023/10/06 02:18:54;;;;;;;;;;;;;;;14.66;100.00;98969.88;5104389;28;19924;-74
2023/10/06 02:21:24;;;;;;;;;;;;;;;14.67;100.00;98971.47;5121756;28;20006;-74
2023/10/06 02:23:51;;;;;;;;;;;;;;;14.68;100.00;98972.31;5128727;28;19924;-74
2023/10/06 02:26:17;;;;;;;;;;;;;;;14.63;100.00;98962.34;5127060;28;19931;-74
2023/10/06 02:28:48;;;;;;;;;;;;;;;14.59;100.00;98967.44;5122078;28;19927;-74
2023/10/06 02:31:16;;;;;;;;;;;;;;;14.58;100.00;98965.00;5115428;28;19996;-74
2023/10/06 02:33:48;;;;;;;;;;;;;;;14.57;100.00;98966.09;5117094;28;19988;-74
2023/10/06 02:36:17;;;;;;;;;;;;;;;14.57;100.00;98963.41;5120032;28;19931;-74
2023/10/06 02:38:46;;;;;;;;;;;;;;;14.55;100.00;98963.66;5122042;28;19976;-74
2023/10/06 02:41:18;;;;;;;;;;;;;;;14.54;100.00;98967.41;5121527;28;20023;-74
2023/10/06 02:43:48;;;;;;;;;;;;;;;14.53;100.00;98962.31;5122002;28;20015;-74
2023/10/06 02:46:20;;;;;;;;;;;;;;;14.52;100.00;98966.06;5095719;28;20030;-74
2023/10/06 02:48:49;;;;;;;;;;;;;;;14.51;100.00;98973.31;5117794;28;19942;-74
2023/10/06 02:51:18;;;;;;;;;;;;;;;14.53;100.00;98959.63;5125898;28;19924;-74
2023/10/06 02:53:49;;;;;;;;;;;;;;;14.52;100.00;98953.41;5123156;28;20046;-74
2023/10/06 02:56:21;;;;;;;;;;;;;;;14.52;100.00;98956.13;5124338;28;19924;-74
2023/10/06 02:58:50;;;;;;;;;;;;;;;14.54;100.00;98961.25;5098976;28;19928;-74
2023/10/06 03:01:18;;;;;;;;;;;;;;;14.50;100.00;98974.41;5116569;28;19928;-73
2023/10/06 03:03:45;;;;;;;;;;;;;;;14.49;100.00;98962.00;5119815;28;19924;-73
2023/10/06 03:06:13;;;;;;;;;;;;;;;14.48;100.00;98968.44;5120220;28;19983;-73
2023/10/06 03:08:41;;;;;;;;;;;;;;;14.46;100.00;98975.97;5122127;28;20074;-74
2023/10/06 03:11:12;;;;;;;;;;;;;;;14.43;100.00;98986.44;5118613;28;19912;-73
2023/10/06 03:13:43;;;;;;;;;;;;;;;14.42;100.00;98979.47;5119582;28;19931;-73
2023/10/06 03:16:11;;;;;;;;;;;;;;;14.26;100.00;98986.59;5119189;28;19951;-74
2023/10/06 03:18:39;;;;;;;;;;;;;;;14.26;100.00;98983.09;5118804;28;19924;-73
2023/10/06 03:21:13;;;;;;;;;;;;;;;14.27;100.00;98972.09;5116321;28;19923;-74
2023/10/06 03:23:39;;;;;;;;;;;;;;;14.31;100.00;98981.25;5099738;28;19931;-74
2023/10/06 03:26:12;;;;;;;;;;;;;;;14.33;100.00;98981.00;5098833;28;19924;-74
2023/10/06 03:28:42;;;;;;;;;;;;;;;14.32;100.00;98979.38;5109377;28;19966;-74
2023/10/06 03:31:22;;;;;;;;;;;;;;;14.32;100.00;98977.50;5116450;28;19938;-73
2023/10/06 03:33:50;;;;;;;;;;;;;;;14.32;100.00;98979.38;5113760;28;20309;-73
2023/10/06 03:36:25;;;;;;;;;;;;;;;14.31;100.00;98977.75;5116344;28;19960;-73
2023/10/06 03:38:55;;;;;;;;;;;;;;;14.30;100.00;98978.81;5115881;28;19931;-73
2023/10/06 03:41:26;;;;;;;;;;;;;;;14.28;100.00;98970.22;5118749;28;19923;-73
2023/10/06 03:43:54;;;;;;;;;;;;;;;14.25;100.00;98970.72;5113739;28;20018;-73
2023/10/06 03:46:23;;;;;;;;;;;;;;;14.23;100.00;98976.38;5118503;28;19951;-73
2023/10/06 03:48:52;;;;;;;;;;;;;;;14.22;100.00;98974.75;5123476;28;19991;-74
2023/10/06 03:51:19;;;;;;;;;;;;;;;14.21;100.00;98969.63;5122639;28;20272;-74
2023/10/06 03:53:47;;;;;;;;;;;;;;;14.19;100.00;98974.47;5102025;28;19936;-73
2023/10/06 03:56:16;;;;;;;;;;;;;;;14.18;100.00;98967.47;5121781;28;19935;-74
2023/10/06 03:58:42;;;;;;;;;;;;;;;14.19;100.00;98969.09;5113909;28;19930;-74
2023/10/06 04:01:11;;;;;;;;;;;;;;;14.17;100.00;98972.06;5116295;28;19944;-74
2023/10/06 04:03:38;;;;;;;;;;;;;;;14.18;100.00;98968.28;5099343;28;19928;-74
2023/10/06 04:06:12;;;;;;;;;;;;;;;14.18;100.00;98967.47;5117936;28;19939;-74
2023/10/06 04:08:39;;;;;;;;;;;;;;;14.17;100.00;98973.91;5117969;28;19924;-74
2023/10/06 04:11:06;;;;;;;;;;;;;;;14.15;100.00;98973.34;5115524;28;19923;-74
2023/10/06 04:13:33;;;;;;;;;;;;;;;14.16;100.00;98969.59;5114077;28;20579;-74
2023/10/06 04:15:59;;;;;;;;;;;;;;;14.15;100.00;98970.66;5116759;28;19946;-73
2023/10/06 04:18:26;;;;;;;;;;;;;;;14.12;100.00;98973.88;5126324;28;19923;-73
2023/10/06 04:20:53;;;;;;;;;;;;;;;14.12;100.00;98973.88;5110648;28;19946;-73
2023/10/06 04:23:22;;;;;;;;;;;;;;;14.10;100.00;98979.53;5117087;28;20312;-73
2023/10/06 04:25:50;;;;;;;;;;;;;;;14.11;100.00;98980.34;5099722;28;19931;-73
2023/10/06 04:28:19;;;;;;;;;;;;;;;14.07;100.00;98980.03;5118014;28;19931;-74
2023/10/06 04:30:46;;;;;;;;;;;;;;;14.03;100.00;98982.44;5120484;28;19928;-74
2023/10/06 04:33:14;;;;;;;;;;;;;;;14.05;100.00;98979.47;5116471;28;19968;-73
2023/10/06 04:35:42;;;;;;;;;;;;;;;14.03;100.00;98982.44;5117803;28;19924;-73
2023/10/06 04:38:10;;;;;;;;;;;;;;;13.97;100.00;98975.41;5117564;28;20331;-73
2023/10/06 04:40:38;;;;;;;;;;;;;;;13.91;100.00;98979.13;5117337;28;19923;-73
2023/10/06 04:43:05;;;;;;;;;;;;;;;13.83;100.00;98976.91;5112377;28;20002;-74
2023/10/06 04:45:31;;;;;;;;;;;;;;;13.72;100.00;98985.97;5114184;28;19947;-74
2023/10/06 04:48:00;;;;;;;;;;;;;;;13.78;100.00;98984.13;5117139;28;20054;-73
2023/10/06 04:50:27;;;;;;;;;;;;;;;13.82;100.00;98990.59;5117970;28;19924;-74
2023/10/06 04:52:54;;;;;;;;;;;;;;;13.85;100.00;98974.78;5117881;28;19924;-73
2023/10/06 04:55:21;;;;;;;;;;;;;;;13.89;100.00;98983.97;5121705;28;19979;-73
2023/10/06 04:57:49;;;;;;;;;;;;;;;13.88;100.00;98974.28;5100108;28;19920;-73
2023/10/06 05:00:19;;;;;;;;;;;;;;;13.88;100.00;98990.38;5117564;28;19931;-73
2023/10/06 05:02:47;;;;;;;;;;;;;;;13.89;100.00;98981.28;5118521;28;19924;-73
2023/10/06 05:05:14;;;;;;;;;;;;;;;13.89;100.00;98975.09;5121263;28;19924;-73
2023/10/06 05:07:40;;;;;;;;;;;;;;;13.88;100.00;98978.84;5116448;28;19924;-74
2023/10/06 05:10:09;;;;;;;;;;;;;;;13.88;100.00;98981.53;5127532;28;19924;-74
2023/10/06 05:12:37;;;;;;;;;;;;;;;13.87;100.00;98979.88;5120996;28;19958;-74
2023/10/06 05:15:07;;;;;;;;;;;;;;;13.87;100.00;98988.75;5117681;28;19923;-74
2023/10/06 05:17:34;;;;;;;;;;;;;;;13.86;100.00;98972.94;5117362;28;19932;-74
2023/10/06 05:20:00;;;;;;;;;;;;;;;13.85;100.00;98984.72;5119664;28;19924;-74
2023/10/06 05:22:26;;;;;;;;;;;;;;;13.85;100.00;98988.22;5120850;28;19935;-74
2023/10/06 05:24:53;;;;;;;;;;;;;;;13.86;100.00;98994.41;5123779;28;19967;-74
2023/10/06 05:27:20;;;;;;;;;;;;;;;13.88;100.00;98995.75;5120815;28;20231;-74
2023/10/06 05:29:47;;;;;;;;;;;;;;;13.86;100.00;98992.53;5122002;28;19992;-74
2023/10/06 05:32:15;;;;;;;;;;;;;;;13.84;100.00;98997.34;5120754;28;19970;-74
2023/10/06 05:34:41;;;;;;;;;;;;;;;13.85;100.00;99000.84;5120805;28;19923;-74
2023/10/06 05:37:08;;;;;;;;;;;;;;;13.83;100.00;99008.34;5097957;28;19928;-74
2023/10/06 05:39:35;;;;;;;;;;;;;;;13.82;100.00;99010.22;5117223;28;19962;-74
2023/10/06 05:42:02;;;;;;;;;;;;;;;13.81;100.00;99003.22;5119257;28;19924;-74
2023/10/06 05:44:30;;;;;;;;;;;;;;;13.81;100.00;99011.28;5120719;28;19928;-74
2023/10/06 05:46:57;;;;;;;;;;;;;;;13.78;100.00;99009.09;5120744;28;19927;-74
2023/10/06 05:49:25;;;;;;;;;;;;;;;13.76;100.00;99005.88;5121239;28;19924;-74
2023/10/06 05:51:51;;;;;;;;;;;;;;;13.79;100.00;99010.72;5121684;28;19924;-74
2023/10/06 05:54:21;;;;;;;;;;;;;;;13.55;100.00;99016.69;5128067;28;19923;-74
2023/10/06 05:56:48;;;;;;;;;;;;;;;13.43;100.00;99016.88;5122128;28;19951;-74
2023/10/06 05:59:18;;;;;;;;;;;;;;;13.53;100.00;99019.63;5119864;28;19975;-74
2023/10/06 06:01:46;;;;;;;;;;;;;;;13.63;100.00;99019.72;5117108;28;19924;-74
2023/10/06 06:04:15;;;;;;;;;;;;;;;13.68;100.00;99030.50;5117400;28;19999;-74
2023/10/06 06:06:46;;;;;;;;;;;;;;;13.71;100.00;99027.28;5120273;28;19924;-74
2023/10/06 06:09:14;;;;;;;;;;;;;;;13.74;100.00;99023.31;5126747;28;19979;-74
2023/10/06 06:11:42;;;;;;;;;;;;;;;13.73;100.00;99022.50;5096982;28;19947;-74
2023/10/06 06:14:08;;;;;;;;;;;;;;;13.68;100.00;99027.81;5118517;28;20695;-74
2023/10/06 06:16:35;;;;;;;;;;;;;;;13.63;100.00;99035.81;5101136;28;19928;-74
2023/10/06 06:19:01;;;;;;;;;;;;;;;13.58;100.00;99032.28;5120180;28;19935;-74
2023/10/06 06:21:29;;;;;;;;;;;;;;;13.57;100.00;99031.47;5119758;28;19927;-75
2023/10/06 06:23:57;;;;;;;;;;;;;;;13.64;100.00;99032.09;5119775;28;19935;-75
2023/10/06 06:26:24;;;;;;;;;;;;;;;13.62;100.00;99028.81;5115404;28;19999;-75
2023/10/06 06:28:52;;;;;;;;;;;;;;;13.17;100.00;99041.81;5101600;28;19954;-75
2023/10/06 06:31:19;;;;;;;;;;;;;;;13.19;100.00;99039.66;5126875;28;19943;-72
2023/10/06 06:33:48;;;;;;;;;;;;;;;13.41;100.00;99041.25;5114560;28;19932;-73
2023/10/06 06:36:15;;;;;;;;;;;;;;;13.40;100.00;99046.91;5117547;28;19924;-73
2023/10/06 06:38:41;;;;;;;;;;;;;;;13.44;100.00;99053.34;5119575;28;20000;-74
2023/10/06 06:41:09;;;;;;;;;;;;;;;13.14;100.00;99053.84;5119275;28;19924;-74
2023/10/06 06:43:35;;;;;;;;;;;;;;;13.09;100.00;99050.31;5119526;28;19939;-73
2023/10/06 06:46:02;;;;;;;;;;;;;;;13.12;100.00;99047.91;5116070;28;19924;-73
2023/10/06 06:48:28;;;;;;;;;;;;;;;13.02;100.00;99049.66;5115978;28;19924;-73
2023/10/06 06:50:54;;;;;;;;;;;;;;;12.94;100.00;99046.34;5119230;28;19935;-73
2023/10/06 06:53:21;;;;;;;;;;;;;;;12.47;100.00;99058.63;5103703;28;19924;-74
2023/10/06 06:55:47;;;;;;;;;;;;;;;12.82;100.00;99056.38;5123777;28;20125;-74
2023/10/06 06:58:16;;;;;;;;;;;;;;;13.16;100.00;99050.91;5099338;28;19928;-74
2023/10/06 07:00:43;;;;;;;;;;;;;;;12.72;100.00;99056.25;5119293;28;19999;-74
2023/10/06 07:03:10;;;;;;;;;;;;;;;11.71;100.00;99062.78;5119665;28;20007;-74
2023/10/06 07:05:37;;;;;;;;;;;;;;;11.75;100.00;99052.41;5120300;28;19928;-73
2023/10/06 07:08:04;;;;;;;;;;;;;;;11.98;100.00;99054.09;5113016;28;19940;-74
2023/10/06 07:10:31;;;;;;;;;;;;;;;12.61;100.00;99061.75;5115556;28;19931;-74
2023/10/06 07:12:58;;;;;;;;;;;;;;;12.48;100.00;99051.38;5118277;28;19928;-74
2023/10/06 07:15:29;;;;;;;;;;;;;;;12.41;100.00;99059.59;5119438;28;19988;-74
2023/10/06 07:17:55;;;;;;;;;;;;;;;12.78;100.00;99055.25;5119563;28;19931;-74
2023/10/06 07:20:23;;;;;;;;;;;;;;;12.16;100.00;99065.38;5120964;28;19935;-74
2023/10/06 07:22:52;;;;;;;;;;;;;;;11.79;100.00;99056.25;5120230;28;19950;-75
2023/10/06 07:25:19;;;;;;;;;;;;;;;12.06;100.00;99051.03;5121236;28;19966;-75
2023/10/06 07:27:46;;;;;;;;;;;;;;;12.38;100.00;99054.72;5118868;28;19924;-74
2023/10/06 07:30:14;;;;;;;;;;;;;;;12.45;100.00;99052.69;5116977;28;19943;-74
2023/10/06 07:32:43;;;;;;;;;;;;;;;12.58;100.00;99055.00;5115173;28;19926;-74
2023/10/06 07:35:11;;;;;;;;;;;;;;;12.99;100.00;99051.78;5116163;28;19939;-74
2023/10/06 07:37:38;;;;;;;;;;;;;;;13.19;100.00;99061.13;5118397;28;19935;-73
2023/10/06 07:40:06;;;;;;;;;;;;;;;13.23;100.00;99048.84;5123779;28;19966;-73
2023/10/06 07:42:33;;;;;;;;;;;;;;;13.46;100.00;99051.25;5113981;28;19931;-73
2023/10/06 07:45:00;;;;;;;;;;;;;;;13.18;100.00;99054.16;5100092;28;19931;-73
2023/10/06 07:47:31;;;;;;;;;;;;;;;13.29;100.00;99045.97;5118468;28;19981;-74
2023/10/06 07:49:59;;;;;;;;;;;;;;;13.21;100.00;99040.25;5115589;28;19967;-74
2023/10/06 07:52:25;;;;;;;;;;;;;;;13.19;100.00;99037.00;5117936;28;19951;-74
2023/10/06 07:54:52;;;;;;;;;;;;;;;13.20;100.00;99038.63;5122349;28;19935;-73
2023/10/06 07:57:18;;;;;;;;;;;;;;;13.39;100.00;99023.78;5113101;28;20077;-74
2023/10/06 07:59:46;;;;;;;;;;;;;;;13.22;100.00;99012.34;5117806;28;19927;-74
2023/10/06 08:02:13;;;;;;;;;;;;;;;12.94;100.00;99016.84;5124490;28;19930;-74
2023/10/06 08:04:39;;;;;;;;;;;;;;;12.91;100.00;99032.63;5113104;28;19924;-74
2023/10/06 08:07:07;;;;;;;;;;;;;;;13.10;100.00;99033.94;5116954;28;19932;-74
2023/10/06 08:09:33;;;;;;;;;;;;;;;12.93;100.00;99030.53;5099535;28;19924;-74
2023/10/06 08:12:00;;;;;;;;;;;;;;;12.70;100.00;99042.31;5117838;28;19931;-74
2023/10/06 08:14:29;;;;;;;;;;;;;;;12.63;100.00;99027.44;5116675;28;20299;-74
2023/10/06 08:16:55;;;;;;;;;;;;;;;12.53;100.00;99030.03;5092395;28;19931;-74
2023/10/06 08:19:22;;;;;;;;;;;;;;;12.39;100.00;99035.72;5111053;28;19952;-74
2023/10/06 08:21:48;;;;;;;;;;;;;;;12.36;100.00;99038.91;5126640;28;19928;-74
2023/10/06 08:24:16;;;;;;;;;;;;;;;12.27;100.00;99036.88;5120073;28;19953;-74
2023/10/06 08:26:42;;;;;;;;;;;;;;;12.75;100.00;99052.28;5114756;28;19924;-74
2023/10/06 08:29:09;;;;;;;;;;;;;;;12.92;100.00;99061.06;5116598;28;19951;-73
2023/10/06 08:31:35;;;;;;;;;;;;;;;12.76;100.00;99052.03;5118162;28;19928;-73
2023/10/06 08:34:04;;;;;;;;;;;;;;;13.00;100.00;99056.06;5117881;28;19924;-73
2023/10/06 08:36:31;;;;;;;;;;;;;;;13.04;100.00;99058.25;5112552;28;19934;-74
2023/10/06 08:38:58;;;;;;;;;;;;;;;13.36;100.00;99064.56;5115375;28;19951;-74
2023/10/06 08:41:37;;;;;;;;;;;;;;;13.12;100.00;99082.78;5094800;28;20440;-74
2023/10/06 08:44:03;;;;;;;;;;;;;;;13.23;100.00;99078.34;5118358;28;19935;-74
2023/10/06 08:46:31;;;;;;;;;;;;;;;12.97;100.00;99078.03;5117545;28;19934;-74
2023/10/06 08:48:58;;;;;;;;;;;;;;;13.07;100.00;99076.53;5113267;28;20009;-74
2023/10/06 08:51:28;;;;;;;;;;;;;;;12.79;100.00;99083.69;5114190;28;19924;-74
2023/10/06 08:53:57;;;;;;;;;;;;;;;12.71;100.00;99073.41;5121754;28;19923;-74
2023/10/06 08:56:24;;;;;;;;;;;;;;;12.89;100.00;99067.75;5117635;28;19935;-74
2023/10/06 08:58:53;;;;;;;;;;;;;;;13.11;100.00;99066.94;5117361;28;19928;-74
2023/10/06 09:01:20;;;;;;;;;;;;;;;12.54;100.00;99064.59;5116531;28;19959;-74
2023/10/06 09:03:49;;;;;;;;;;;;;;;12.55;100.00;99052.81;5113612;28;20025;-74
2023/10/06 09:06:15;;;;;;;;;;;;;;;12.28;100.00;99054.59;5122404;28;20006;-74
2023/10/06 09:08:43;;;;;;;;;;;;;;;12.37;100.00;99045.06;5117138;28;19920;-74
2023/10/06 09:11:10;;;;;;;;;;;;;;;12.75;100.00;99061.13;5114765;28;19935;-74
2023/10/06 09:13:37;;;;;;;;;;;;;;;13.03;100.00;99057.44;5113448;28;20457;-74
2023/10/06 09:16:06;;;;;;;;;;;;;;;13.28;100.00;99048.88;5116788;28;19924;-74
2023/10/06 09:18:34;;;;;;;;;;;;;;;12.90;100.00;99047.13;5117392;28;19946;-74
2023/10/06 09:21:12;;;;;;;;;;;;;;;12.99;100.00;99056.34;5117507;28;19951;-74
2023/10/06 09:23:40;;;;;;;;;;;;;;;13.20;100.00;99052.03;5119421;28;19938;-74
2023/10/06 09:26:08;;;;;;;;;;;;;;;13.53;100.00;99054.50;5116810;28;19963;-74
2023/10/06 09:28:36;;;;;;;;;;;;;;;13.73;100.00;99057.41;5117002;28;19928;-74
2023/10/06 09:31:05;;;;;;;;;;;;;;;13.76;100.00;99050.69;5117224;28;19946;-75
2023/10/06 09:33:44;;;;;;;;;;;;;;;13.51;100.00;99046.72;5116782;28;20036;-74
2023/10/06 09:36:11;;;;;;;;;;;;;;;13.55;100.00;99048.91;5114877;28;19930;-74
2023/10/06 09:38:38;;;;;;;;;;;;;;;13.55;100.00;99043.53;5119528;28;20607;-74
2023/10/06 09:41:07;;;;;;;;;;;;;;;13.55;100.00;99049.72;5123549;28;19928;-73
2023/10/06 09:43:34;;;;;;;;;;;;;;;13.40;100.00;99045.00;5098683;28;19930;-74
2023/10/06 09:46:03;;;;;;;;;;;;;;;13.35;100.00;99033.41;5114005;28;19932;-74
2023/10/06 09:48:33;;;;;;;;;;;;;;;13.24;100.00;99027.16;5113870;28;19955;-73
2023/10/06 09:51:04;;;;;;;;;;;;;;;13.42;100.00;99010.69;5101194;28;19959;-74
2023/10/06 09:53:36;;;;;;;;;;;;;;;13.64;100.00;99010.59;5124284;28;19943;-73
2023/10/06 09:56:03;;;;;;;;;;;;;;;13.93;100.00;99009.22;5123664;28;19931;-74
2023/10/06 09:58:30;;;;;;;;;;;;;;;13.90;100.00;99014.28;5120391;28;19927;-75
2023/10/06 10:00:57;;;;;;;;;;;;;;;13.73;100.00;99009.06;5095321;28;19924;-74
2023/10/06 10:03:24;;;;;;;;;;;;;;;13.71;100.00;99010.41;5114224;28;19920;-74
2023/10/06 10:05:52;;;;;;;;;;;;;;;13.95;100.00;99007.09;5129049;28;19998;-74
2023/10/06 10:08:22;;;;;;;;;;;;;;;14.32;100.00;99000.88;5119733;28;20415;-74
2023/10/06 10:10:52;;;;;;;;;;;;;;;14.11;100.00;98999.13;5115457;28;19923;-74
2023/10/06 10:13:37;;;;;;;;;;;;;;;14.06;100.00;98989.97;5118174;28;19924;-74
2023/10/06 10:16:12;;;;;;;;;;;;;;;14.06;100.00;99003.41;5099904;28;19965;-74
2023/10/06 10:18:40;;;;;;;;;;;;;;;14.08;100.00;99001.25;5120049;28;19931;-74
2023/10/06 10:21:11;;;;;;;;;;;;;;;14.16;100.00;98978.47;5120346;28;20023;-74
2023/10/06 10:23:40;;;;;;;;;;;;;;;14.14;100.00;98982.50;5101918;28;19991;-74
2023/10/06 10:26:18;;;;;;;;;;;;;;;14.22;100.00;98979.31;5118335;28;19934;-74
2023/10/06 10:28:44;;;;;;;;;;;;;;;15.25;100.00;98977.56;5115795;28;20376;-74
2023/10/06 10:31:17;;;;;;;;;;;;;;;14.78;100.00;98981.22;5125829;28;19935;-74
2023/10/06 10:33:44;;;;;;;;;;;;;;;14.48;100.00;98983.78;5119812;28;19930;-74
2023/10/06 10:36:20;;;;;;;;;;;;;;;14.97;100.00;98979.66;5117203;28;19928;-74
2023/10/06 10:39:01;;;;;;;;;;;;;;;15.60;100.00;98983.00;5116179;28;19924;-74
2023/10/06 10:41:30;;;;;;;;;;;;;;;16.05;100.00;98977.59;5115350;28;19924;-74
2023/10/06 10:44:01;;;;;;;;;;;;;;;15.90;100.00;98974.91;5100746;28;19966;-74
2023/10/06 10:46:31;;;;;;;;;;;;;;;15.76;100.00;98964.94;5119833;28;19924;-75
2023/10/06 10:48:58;;;;;;;;;;;;;;;15.43;100.00;98958.19;5123820;28;19963;-74
2023/10/06 10:51:25;;;;;;;;;;;;;;;15.50;100.00;98953.41;5116288;28;19931;-74
2023/10/06 10:53:52;;;;;;;;;;;;;;;15.73;100.00;98931.28;5119339;28;19966;-74
2023/10/06 10:56:34;;;;;;;;;;;;;;;15.69;100.00;98924.81;5117390;28;19920;-73
2023/10/06 10:59:02;;;;;;;;;;;;;;;15.54;100.00;98930.22;5119652;28;19944;-74
2023/10/06 11:01:31;;;;;;;;;;;;;;;15.64;100.00;98928.34;5100122;28;20003;-73
2023/10/06 11:04:29;;;;;;;;;;;;;;;15.73;100.00;98915.13;5116673;28;19927;-73
2023/10/06 11:06:56;;;;;;;;;;;;;;;16.38;100.00;98900.66;5107379;28;19928;-75
2023/10/06 11:09:28;;;;;;;;;;;;;;;16.63;100.00;98905.16;5112291;28;19923;-75
2023/10/06 11:11:58;;;;;;;;;;;;;;;16.63;100.00;98907.84;5101137;28;19920;-75
2023/10/06 11:14:25;;;;;;;;;;;;;;;16.23;100.00;98924.19;5118700;28;19945;-75
2023/10/06 11:16:52;;;;;;;;;;;;;;;15.90;100.00;98904.06;5114517;28;19924;-75
2023/10/06 11:19:19;;;;;;;;;;;;;;;16.32;100.00;98900.97;5116940;28;19927;-74
2023/10/06 11:21:47;;;;;;;;;;;;;;;16.09;100.00;98899.72;5119063;28;20288;-75
2023/10/06 11:24:24;;;;;;;;;;;;;;;15.94;100.00;98884.38;5118934;28;19926;-75
2023/10/06 11:26:51;;;;;;;;;;;;;;;15.88;100.00;98872.00;5118984;28;19924;-74
2023/10/06 11:29:28;;;;;;;;;;;;;;;16.39;100.00;98861.03;5118937;28;19924;-75
2023/10/06 11:31:55;;;;;;;;;;;;;;;16.72;100.00;98855.75;5119763;28;19931;-75
2023/10/06 11:34:24;;;;;;;;;;;;;;;16.44;100.00;98859.09;5119098;28;19970;-75
2023/10/06 11:36:52;;;;;;;;;;;;;;;16.31;100.00;98850.84;5118945;28;19924;-75
2023/10/06 11:39:23;;;;;;;;;;;;;;;16.33;100.00;98838.69;5117533;28;19928;-75
2023/10/06 11:41:50;;;;;;;;;;;;;;;16.45;100.00;98839.16;5114980;28;19977;-75
2023/10/06 11:44:16;;;;;;;;;;;;;;;16.53;100.00;98832.38;5115228;28;19959;-73
2023/10/06 11:46:52;;;;;;;;;;;;;;;16.56;100.00;98831.84;5118370;28;19924;-75
2023/10/06 11:49:20;;;;;;;;;;;;;;;16.70;100.00;98827.44;5118625;28;19924;-75
2023/10/06 11:51:47;;;;;;;;;;;;;;;16.70;100.00;98828.25;5121140;28;19927;-74
2023/10/06 11:54:14;;;;;;;;;;;;;;;16.65;100.00;98830.16;5116829;28;19920;-74
2023/10/06 11:56:48;;;;;;;;;;;;;;;16.68;100.00;98833.09;5118436;28;19984;-74
2023/10/06 11:59:22;;;;;;;;;;;;;;;16.80;100.00;98834.66;5118720;28;19947;-74
2023/10/06 12:01:49;;;;;;;;;;;;;;;16.88;100.00;98834.06;5118302;28;19924;-75
2023/10/06 12:04:30;;;;;;;;;;;;;;;16.88;100.00;98831.34;5117425;28;19924;-75
2023/10/06 12:06:56;;;;;;;;;;;;;;;16.94;100.00;98828.34;5122958;28;19924;-75
2023/10/06 12:09:23;;;;;;;;;;;;;;;16.97;100.00;98830.47;5119865;28;19939;-75
2023/10/06 12:11:50;;;;;;;;;;;;;;;17.00;100.00;98824.50;5119269;28;19924;-75
2023/10/06 12:14:16;;;;;;;;;;;;;;;17.17;100.00;98816.84;5119781;28;19928;-74
2023/10/06 12:16:44;;;;;;;;;;;;;;;17.20;100.00;98810.06;5114992;28;19928;-75
2023/10/06 12:19:11;;;;;;;;;;;;;;;17.03;100.00;98821.25;5118225;28;19975;-74
2023/10/06 12:21:39;;;;;;;;;;;;;;;16.96;100.00;98817.28;5120018;28;19924;-74
2023/10/06 12:24:07;;;;;;;;;;;;;;;16.93;100.00;98798.97;5118744;28;19924;-75
2023/10/06 12:26:34;;;;;;;;;;;;;;;16.96;100.00;98804.56;5120504;28;20353;-75
2023/10/06 12:29:02;;;;;;;;;;;;;;;17.03;100.00;98804.25;5119589;28;19924;-75
2023/10/06 12:31:28;;;;;;;;;;;;;;;17.04;100.00;98806.69;5102330;28;19995;-74
2023/10/06 12:33:55;;;;;;;;;;;;;;;17.07;100.00;98803.41;5120898;28;19978;-75
2023/10/06 12:36:21;;;;;;;;;;;;;;;17.17;100.00;98800.63;5119657;28;20579;-75
2023/10/06 12:38:49;;;;;;;;;;;;;;;17.23;100.00;98807.59;5116072;28;19934;-75
2023/10/06 12:41:17;;;;;;;;;;;;;;;17.21;100.00;98801.66;5116023;28;19935;-76
2023/10/06 12:43:47;;;;;;;;;;;;;;;17.24;100.00;98790.28;5126927;28;19930;-75